createdAt,value
2019-01-13T00:01:54.138Z,17.97
2019-01-13T00:04:23.543Z,19.27
2019-01-13T00:06:52.808Z,18.27
2019-01-13T00:09:22.153Z,18.73
2019-01-13T00:11:51.779Z,17.50
2019-01-13T00:14:21.113Z,20.10
2019-01-13T00:16:50.399Z,19.37
2019-01-13T00:19:19.713Z,17.80
2019-01-13T00:21:48.995Z,20.47
2019-01-13T00:24:18.387Z,19.47
2019-01-13T00:26:47.695Z,18.77
2019-01-13T00:29:17.008Z,19.70
2019-01-13T00:31:46.297Z,18.63
2019-01-13T00:34:15.591Z,17.33
2019-01-13T00:36:44.883Z,17.10
2019-01-13T00:39:14.532Z,16.90
2019-01-13T00:41:43.817Z,15.00
2019-01-13T00:44:13.161Z,17.07
2019-01-13T00:46:42.488Z,15.73
2019-01-13T00:49:11.809Z,14.97
2019-01-13T00:51:41.112Z,15.70
2019-01-13T00:54:10.433Z,14.27
2019-01-13T00:56:39.749Z,14.03
2019-01-13T00:59:09.021Z,17.37
2019-01-13T01:01:38.457Z,18.37
2019-01-13T01:04:07.799Z,17.60
2019-01-13T01:06:37.092Z,16.50
2019-01-13T01:09:09.889Z,15.23
2019-01-13T01:11:39.492Z,15.87
2019-01-13T01:14:08.884Z,17.40
2019-01-13T01:16:38.185Z,17.10
2019-01-13T01:19:07.459Z,16.37
2019-01-13T01:21:36.762Z,17.37
2019-01-13T01:24:06.036Z,16.83
2019-01-13T01:26:36.670Z,16.70
2019-01-13T01:29:06.008Z,16.83
2019-01-13T01:31:35.300Z,18.33
2019-01-13T01:34:04.795Z,18.70
2019-01-13T01:36:34.084Z,19.60
2019-01-13T01:39:05.034Z,18.70
2019-01-13T01:41:34.188Z,17.27
2019-01-13T01:44:03.763Z,16.77
2019-01-13T01:46:33.399Z,17.70
2019-01-13T01:49:02.728Z,17.40
2019-01-13T01:51:32.012Z,15.93
2019-01-13T01:54:01.242Z,15.23
2019-01-13T01:56:30.528Z,16.30
2019-01-13T01:58:59.814Z,16.90
2019-01-13T02:01:29.123Z,16.37
2019-01-13T02:03:58.685Z,17.07
2019-01-13T02:06:28.012Z,16.33
2019-01-13T02:08:57.290Z,17.20
2019-01-13T02:11:26.600Z,17.20
2019-01-13T02:13:55.903Z,17.33
2019-01-13T02:16:25.196Z,16.83
2019-01-13T02:18:54.509Z,17.30
2019-01-13T02:21:24.753Z,15.83
2019-01-13T02:23:54.042Z,14.83
2019-01-13T02:26:23.393Z,14.17
2019-01-13T02:28:52.706Z,14.97
2019-01-13T02:31:21.988Z,13.23
2019-01-13T02:33:51.263Z,11.80
2019-01-13T02:36:20.676Z,13.23
2019-01-13T02:38:49.965Z,12.40
2019-01-13T02:41:19.274Z,10.93
2019-01-13T02:43:48.548Z,10.87
2019-01-13T02:46:17.852Z,11.47
2019-01-13T02:48:47.122Z,11.20
2019-01-13T02:51:16.433Z,8.37
2019-01-13T02:53:46.101Z,9.33
2019-01-13T02:56:15.417Z,10.47
2019-01-13T02:58:44.708Z,9.70
2019-01-13T03:01:13.995Z,11.90
2019-01-13T03:03:43.597Z,10.20
2019-01-13T03:06:12.889Z,11.63
2019-01-13T03:08:42.511Z,10.90
2019-01-13T03:11:11.910Z,12.23
2019-01-13T03:13:41.238Z,12.37
2019-01-13T03:16:10.620Z,13.17
2019-01-13T03:18:40.861Z,14.17
2019-01-13T03:21:10.168Z,12.30
2019-01-13T03:23:39.423Z,13.43
2019-01-13T03:26:08.824Z,12.20
2019-01-13T03:28:38.151Z,11.53
2019-01-13T03:31:11.702Z,12.27
2019-01-13T03:33:38.536Z,13.50
2019-01-13T03:36:07.846Z,12.50
2019-01-13T03:38:37.155Z,10.97
2019-01-13T03:41:06.639Z,14.13
2019-01-13T03:43:35.936Z,12.70
2019-01-13T03:46:05.237Z,12.87
2019-01-13T03:48:34.671Z,12.87
2019-01-13T03:51:04.009Z,11.30
2019-01-13T03:53:33.341Z,12.07
2019-01-13T03:56:02.728Z,12.70
2019-01-13T03:58:32.143Z,10.53
2019-01-13T04:01:01.408Z,12.00
2019-01-13T04:03:30.718Z,10.30
2019-01-13T04:05:59.993Z,11.07
2019-01-13T04:08:29.695Z,9.27
2019-01-13T04:10:59.003Z,11.10
2019-01-13T04:13:28.308Z,10.60
2019-01-13T04:16:02.140Z,10.10
2019-01-13T04:18:31.327Z,10.80
2019-01-13T04:21:00.637Z,9.23
2019-01-13T04:23:29.927Z,9.33
2019-01-13T04:25:59.177Z,8.90
2019-01-13T04:28:28.883Z,8.27
2019-01-13T04:30:58.252Z,8.40
2019-01-13T04:33:28.178Z,8.17
2019-01-13T04:35:57.506Z,7.83
2019-01-13T04:38:27.092Z,10.07
2019-01-13T04:40:56.395Z,10.17
2019-01-13T04:43:25.689Z,10.13
2019-01-13T04:45:55.001Z,10.50
2019-01-13T04:48:24.416Z,9.47
2019-01-13T04:50:54.192Z,9.20
2019-01-13T04:53:23.551Z,10.70
2019-01-13T04:55:52.909Z,10.90
2019-01-13T04:58:22.185Z,11.47
2019-01-13T05:00:51.480Z,11.37
2019-01-13T05:03:20.770Z,10.37
2019-01-13T05:05:50.117Z,10.60
2019-01-13T05:08:19.387Z,10.67
2019-01-13T05:10:48.721Z,10.20
2019-01-13T05:13:18.520Z,11.07
2019-01-13T05:15:47.837Z,11.80
2019-01-13T05:18:17.121Z,11.73
2019-01-13T05:20:46.428Z,11.60
2019-01-13T05:23:16.141Z,9.77
2019-01-13T05:25:45.916Z,12.27
2019-01-13T05:28:16.385Z,10.40
2019-01-13T05:30:45.743Z,10.30
2019-01-13T05:33:15.012Z,9.97
2019-01-13T05:35:44.231Z,8.53
2019-01-13T05:38:13.536Z,8.57
2019-01-13T05:40:42.837Z,7.33
2019-01-13T05:43:12.110Z,7.80
2019-01-13T05:45:41.453Z,7.60
2019-01-13T05:48:10.754Z,6.83
2019-01-13T05:50:40.053Z,8.37
2019-01-13T05:53:09.828Z,7.20
2019-01-13T05:55:39.101Z,8.43
2019-01-13T05:58:08.786Z,7.80
2019-01-13T06:00:42.968Z,7.23
2019-01-13T06:03:13.163Z,6.87
2019-01-13T06:05:42.475Z,8.07
2019-01-13T06:08:13.904Z,6.90
2019-01-13T06:10:43.181Z,7.97
2019-01-13T06:13:12.496Z,7.20
2019-01-13T06:15:42.159Z,6.93
2019-01-13T06:18:13.367Z,7.97
2019-01-13T06:20:42.720Z,7.77
2019-01-13T06:23:12.002Z,8.60
2019-01-13T06:25:41.241Z,7.33
2019-01-13T06:28:11.208Z,8.00
2019-01-13T06:30:40.508Z,9.40
2019-01-13T06:33:11.645Z,9.77
2019-01-13T06:35:41.032Z,9.67
2019-01-13T06:38:10.355Z,8.90
2019-01-13T06:40:39.637Z,9.70
2019-01-13T06:43:09.008Z,10.00
2019-01-13T06:45:38.292Z,11.30
2019-01-13T06:48:07.573Z,9.63
2019-01-13T06:50:36.885Z,10.03
2019-01-13T06:53:06.174Z,10.37
2019-01-13T06:55:35.852Z,9.97
2019-01-13T06:58:05.119Z,8.77
2019-01-13T07:00:34.433Z,7.53
2019-01-13T07:03:03.737Z,9.40
2019-01-13T07:05:33.036Z,8.97
2019-01-13T07:08:02.404Z,8.60
2019-01-13T07:10:31.753Z,7.93
2019-01-13T07:13:01.025Z,7.47
2019-01-13T07:15:30.318Z,7.37
2019-01-13T07:17:59.604Z,7.33
2019-01-13T07:20:28.912Z,8.17
2019-01-13T07:22:58.559Z,8.93
2019-01-13T07:25:28.145Z,7.17
2019-01-13T07:27:57.526Z,7.53
2019-01-13T07:30:26.893Z,7.13
2019-01-13T07:32:56.156Z,7.50
2019-01-13T07:35:25.591Z,7.40
2019-01-13T07:37:54.900Z,7.07
2019-01-13T07:40:24.713Z,8.27
2019-01-13T07:42:54.802Z,8.93
2019-01-13T07:45:25.961Z,6.57
2019-01-13T07:47:55.159Z,7.97
2019-01-13T07:50:24.529Z,7.50
2019-01-13T07:52:53.795Z,6.80
2019-01-13T07:55:23.824Z,7.73
2019-01-13T07:57:53.456Z,7.27
2019-01-13T08:00:31.511Z,7.30
2019-01-13T08:03:01.342Z,7.50
2019-01-13T08:05:30.617Z,7.90
2019-01-13T08:08:01.228Z,8.37
2019-01-13T08:10:30.555Z,9.67
2019-01-13T08:12:59.880Z,10.73
2019-01-13T08:15:29.177Z,10.10
2019-01-13T08:17:58.447Z,11.47
2019-01-13T08:20:32.215Z,28.50
2019-01-13T08:23:01.647Z,21.83
2019-01-13T08:25:33.166Z,11.80
2019-01-13T08:28:02.377Z,14.70
2019-01-13T08:30:31.712Z,41.43
2019-01-13T08:33:01.067Z,42.83
2019-01-13T08:35:30.435Z,16.83
2019-01-13T08:37:59.727Z,56.33
2019-01-13T08:40:29.131Z,37.20
2019-01-13T08:42:58.352Z,17.27
2019-01-13T08:45:27.646Z,14.70
2019-01-13T08:47:56.939Z,14.67
2019-01-13T08:50:26.570Z,12.53
2019-01-13T08:52:56.142Z,15.40
2019-01-13T08:55:27.439Z,14.07
2019-01-13T08:57:56.736Z,14.13
2019-01-13T09:00:35.741Z,15.00
2019-01-13T09:03:06.906Z,15.13
2019-01-13T09:05:36.280Z,14.97
2019-01-13T09:08:06.347Z,16.00
2019-01-13T09:10:35.640Z,13.57
2019-01-13T09:13:04.931Z,16.30
2019-01-13T09:15:34.217Z,15.97
2019-01-13T09:18:03.703Z,15.83
2019-01-13T09:20:33.091Z,16.73
2019-01-13T09:23:03.390Z,16.80
2019-01-13T09:25:34.692Z,19.17
2019-01-13T09:28:04.183Z,18.87
2019-01-13T09:30:33.524Z,18.60
2019-01-13T09:33:02.891Z,19.07
2019-01-13T09:35:32.295Z,19.13
2019-01-13T09:38:01.670Z,18.17
2019-01-13T09:40:32.299Z,18.00
2019-01-13T09:43:03.400Z,18.97
2019-01-13T09:45:32.777Z,16.90
2019-01-13T09:48:03.649Z,20.30
2019-01-13T09:50:32.960Z,21.10
2019-01-13T09:53:02.239Z,22.37
2019-01-13T09:55:32.902Z,18.60
2019-01-13T09:58:02.515Z,19.70
2019-01-13T10:00:36.360Z,18.60
2019-01-13T10:03:07.242Z,18.37
2019-01-13T10:05:36.852Z,18.80
2019-01-13T10:08:06.233Z,19.40
2019-01-13T10:10:35.535Z,17.77
2019-01-13T10:13:04.819Z,17.93
2019-01-13T10:15:34.124Z,19.43
2019-01-13T10:18:03.422Z,18.07
2019-01-13T10:20:32.715Z,18.83
2019-01-13T10:23:02.007Z,15.53
2019-01-13T10:25:31.414Z,18.30
2019-01-13T10:28:01.096Z,17.30
2019-01-13T10:30:32.082Z,17.67
2019-01-13T10:33:01.424Z,27.70
2019-01-13T10:35:31.339Z,19.50
2019-01-13T10:38:00.759Z,19.07
2019-01-13T10:40:31.206Z,16.90
2019-01-13T10:43:00.925Z,16.60
2019-01-13T10:45:30.791Z,16.50
2019-01-13T10:48:00.204Z,20.40
2019-01-13T10:50:31.067Z,19.67
2019-01-13T10:53:02.739Z,13.70
2019-01-13T10:55:32.063Z,20.20
2019-01-13T10:58:01.315Z,16.80
2019-01-13T11:00:32.529Z,21.33
2019-01-13T11:03:02.671Z,15.63
2019-01-13T11:05:32.190Z,29.03
2019-01-13T11:08:01.824Z,22.57
2019-01-13T11:10:31.126Z,19.67
2019-01-13T11:13:00.508Z,33.30
2019-01-13T11:15:29.914Z,22.97
2019-01-13T11:17:59.273Z,15.83
2019-01-13T11:20:31.340Z,25.10
2019-01-13T11:23:00.740Z,16.80
2019-01-13T11:25:30.024Z,51.93
2019-01-13T11:27:59.339Z,20.03
2019-01-13T11:30:28.688Z,16.03
2019-01-13T11:32:58.061Z,14.30
2019-01-13T11:35:27.435Z,16.50
2019-01-13T11:37:56.757Z,14.87
2019-01-13T11:40:27.510Z,15.50
2019-01-13T11:42:57.038Z,14.37
2019-01-13T11:45:26.341Z,11.30
2019-01-13T11:47:55.646Z,15.00
2019-01-13T11:50:25.837Z,11.43
2019-01-13T11:52:55.302Z,11.50
2019-01-13T11:55:24.683Z,11.20
2019-01-13T11:57:54.047Z,8.87
2019-01-13T12:00:29.280Z,10.30
2019-01-13T12:02:58.611Z,10.73
2019-01-13T12:05:28.913Z,10.00
2019-01-13T12:07:58.188Z,8.97
2019-01-13T12:10:27.715Z,8.60
2019-01-13T12:12:57.118Z,9.83
2019-01-13T12:15:26.816Z,9.87
2019-01-13T12:17:56.139Z,11.63
2019-01-13T12:20:25.751Z,8.80
2019-01-13T12:22:55.339Z,22.50
2019-01-13T12:25:24.837Z,15.50
2019-01-13T12:27:54.784Z,10.17
2019-01-13T12:30:26.409Z,16.10
2019-01-13T12:32:55.849Z,6.00
2019-01-13T12:35:25.640Z,6.27
2019-01-13T12:37:55.159Z,6.40
2019-01-13T12:40:25.324Z,6.80
2019-01-13T12:42:55.055Z,5.77
2019-01-13T12:45:25.123Z,6.50
2019-01-13T12:47:54.652Z,7.20
2019-01-13T12:50:26.068Z,7.27
2019-01-13T12:52:55.345Z,7.33
2019-01-13T12:55:24.688Z,10.13
2019-01-13T12:57:53.989Z,7.80
2019-01-13T13:00:24.320Z,8.30
2019-01-13T13:02:54.028Z,8.57
2019-01-13T13:05:23.414Z,6.77
2019-01-13T13:07:52.743Z,7.43
2019-01-13T13:10:37.075Z,7.80
2019-01-13T13:13:06.880Z,7.63
2019-01-13T13:15:36.448Z,8.30
2019-01-13T13:18:06.094Z,9.47
2019-01-13T13:20:35.580Z,8.07
2019-01-13T13:23:05.472Z,7.90
2019-01-13T13:25:34.760Z,7.40
2019-01-13T13:28:04.265Z,7.67
2019-01-13T13:30:33.617Z,9.07
2019-01-13T13:33:02.966Z,7.00
2019-01-13T13:35:39.416Z,7.57
2019-01-13T13:38:03.181Z,8.70
2019-01-13T13:40:32.496Z,8.40
2019-01-13T13:43:01.772Z,8.20
2019-01-13T13:45:31.070Z,7.60
2019-01-13T13:48:00.574Z,7.67
2019-01-13T13:50:29.872Z,7.37
2019-01-13T13:52:59.179Z,7.63
2019-01-13T13:55:28.745Z,7.67
2019-01-13T13:57:58.054Z,13.33
2019-01-13T14:00:35.502Z,12.53
2019-01-13T14:03:05.444Z,14.40
2019-01-13T14:05:34.794Z,17.73
2019-01-13T14:08:04.606Z,12.03
2019-01-13T14:10:36.730Z,9.80
2019-01-13T14:13:06.250Z,20.07
2019-01-13T14:15:35.566Z,28.37
2019-01-13T14:18:04.898Z,16.33
2019-01-13T14:20:35.535Z,8.10
2019-01-13T14:23:05.209Z,6.67
2019-01-13T14:25:34.884Z,12.67
2019-01-13T14:28:05.178Z,11.50
2019-01-13T14:30:34.588Z,9.43
2019-01-13T14:33:03.975Z,7.87
2019-01-13T14:35:33.558Z,24.20
2019-01-13T14:38:02.832Z,7.30
2019-01-13T14:40:32.549Z,7.83
2019-01-13T14:43:01.841Z,7.30
2019-01-13T14:45:31.190Z,8.83
2019-01-13T14:48:00.482Z,8.67
2019-01-13T14:50:33.713Z,6.43
2019-01-13T14:53:04.021Z,9.90
2019-01-13T14:55:33.362Z,5.60
2019-01-13T14:58:03.070Z,4.70
2019-01-13T15:00:34.244Z,6.33
2019-01-13T15:03:04.847Z,7.90
2019-01-13T15:05:34.119Z,6.13
2019-01-13T15:08:03.408Z,6.33
2019-01-13T15:10:32.715Z,5.53
2019-01-13T15:13:02.057Z,4.90
2019-01-13T15:15:31.326Z,5.23
2019-01-13T15:18:02.034Z,6.00
2019-01-13T15:20:31.270Z,5.40
2019-01-13T15:23:00.648Z,5.90
2019-01-13T15:25:31.194Z,5.97
2019-01-13T15:28:00.599Z,7.20
2019-01-13T15:30:37.845Z,5.23
2019-01-13T15:33:08.636Z,6.10
2019-01-13T15:35:38.038Z,6.80
2019-01-13T15:38:11.183Z,8.83
2019-01-13T15:40:40.833Z,6.23
2019-01-13T15:43:10.356Z,7.60
2019-01-13T15:45:39.688Z,6.53
2019-01-13T15:48:09.961Z,8.83
2019-01-13T15:50:39.380Z,8.60
2019-01-13T15:53:11.408Z,8.70
2019-01-13T15:55:40.780Z,9.57
2019-01-13T15:58:10.101Z,11.27
2019-01-13T16:00:39.625Z,10.23
2019-01-13T16:03:09.908Z,11.77
2019-01-13T16:05:40.160Z,10.00
2019-01-13T16:08:10.025Z,13.00
2019-01-13T16:10:39.428Z,10.43
2019-01-13T16:13:08.815Z,10.27
2019-01-13T16:15:38.456Z,9.33
2019-01-13T16:18:09.001Z,11.20
2019-01-13T16:20:42.188Z,9.93
2019-01-13T16:23:12.387Z,9.83
2019-01-13T16:25:41.817Z,11.13
2019-01-13T16:28:11.600Z,10.67
2019-01-13T16:30:40.894Z,10.57
2019-01-13T16:33:10.213Z,10.40
2019-01-13T16:35:39.959Z,9.60
2019-01-13T16:38:10.059Z,10.70
2019-01-13T16:40:39.453Z,12.23
2019-01-13T16:43:09.176Z,12.03
2019-01-13T16:45:38.468Z,12.00
2019-01-13T16:48:07.817Z,12.40
2019-01-13T16:50:38.460Z,14.07
2019-01-13T16:53:07.797Z,14.40
2019-01-13T16:55:37.138Z,15.50
2019-01-13T16:58:06.485Z,14.70
2019-01-13T17:00:38.559Z,14.30
2019-01-13T17:03:07.832Z,13.60
2019-01-13T17:05:37.513Z,16.20
2019-01-13T17:08:06.909Z,14.90
2019-01-13T17:10:36.183Z,16.60
2019-01-13T17:13:05.501Z,16.17
2019-01-13T17:15:36.578Z,14.60
2019-01-13T17:18:07.194Z,19.70
2019-01-13T17:20:36.545Z,18.73
2019-01-13T17:23:06.468Z,14.67
2019-01-13T17:25:35.752Z,18.10
2019-01-13T17:28:05.292Z,14.30
2019-01-13T17:30:36.037Z,13.63
2019-01-13T17:33:05.997Z,15.63
2019-01-13T17:35:35.412Z,14.17
2019-01-13T17:38:04.951Z,13.17
2019-01-13T17:40:34.216Z,12.70
2019-01-13T17:43:03.607Z,13.40
2019-01-13T17:45:33.599Z,11.87
2019-01-13T17:48:02.936Z,12.40
2019-01-13T17:50:32.251Z,11.57
2019-01-13T17:53:01.560Z,11.77
2019-01-13T17:55:31.985Z,12.67
2019-01-13T17:58:01.494Z,9.00
2019-01-13T18:00:38.914Z,9.20
2019-01-13T18:03:09.824Z,9.10
2019-01-13T18:05:39.138Z,9.40
2019-01-13T18:08:08.688Z,13.57
2019-01-13T18:10:38.010Z,7.93
2019-01-13T18:13:07.587Z,8.87
2019-01-13T18:15:37.001Z,8.47
2019-01-13T18:18:06.274Z,6.53
2019-01-13T18:20:35.827Z,6.90
2019-01-13T18:23:05.264Z,6.77
2019-01-13T18:25:34.558Z,7.90
2019-01-13T18:28:03.937Z,8.00
2019-01-13T18:30:33.239Z,7.47
2019-01-13T18:33:03.045Z,8.80
2019-01-13T18:35:32.307Z,7.00
2019-01-13T18:38:04.714Z,9.50
2019-01-13T18:40:34.002Z,7.67
2019-01-13T18:43:03.868Z,8.77
2019-01-13T18:45:33.231Z,7.50
2019-01-13T18:48:02.534Z,8.00
2019-01-13T18:50:32.295Z,7.83
2019-01-13T18:53:05.366Z,7.40
2019-01-13T18:55:34.633Z,6.67
2019-01-13T18:58:04.087Z,5.73
2019-01-13T19:00:33.369Z,4.73
2019-01-13T19:03:02.684Z,4.43
2019-01-13T19:05:32.284Z,3.37
2019-01-13T19:08:01.583Z,3.50
2019-01-13T19:10:52.329Z,3.13
2019-01-13T19:13:44.157Z,2.53
2019-01-13T19:16:18.223Z,3.30
2019-01-13T19:18:47.602Z,3.27
2019-01-13T19:21:16.935Z,3.90
2019-01-13T19:23:46.371Z,5.20
2019-01-13T19:26:15.663Z,4.50
2019-01-13T19:28:44.995Z,3.73
2019-01-13T19:31:14.283Z,4.67
2019-01-13T19:33:43.547Z,4.70
2019-01-13T19:36:12.857Z,3.90
2019-01-13T19:38:42.893Z,3.90
2019-01-13T19:41:27.485Z,3.83
2019-01-13T19:43:56.880Z,3.73
2019-01-13T19:46:26.277Z,4.67
2019-01-13T19:48:55.615Z,3.20
2019-01-13T19:51:25.232Z,3.90
2019-01-13T19:53:54.530Z,3.40
2019-01-13T19:56:24.188Z,3.63
2019-01-13T19:58:53.947Z,4.00
2019-01-13T20:01:23.588Z,4.30
2019-01-13T20:03:53.082Z,4.70
2019-01-13T20:06:22.413Z,6.03
2019-01-13T20:08:51.699Z,5.97
2019-01-13T20:11:21.868Z,4.13
2019-01-13T20:13:51.183Z,2.43
2019-01-13T20:16:20.830Z,1.60
2019-01-13T20:18:50.165Z,1.67
2019-01-13T20:21:19.725Z,1.13
2019-01-13T20:23:49.722Z,1.17
2019-01-13T20:26:19.183Z,1.63
2019-01-13T20:28:48.547Z,1.03
2019-01-13T20:31:17.811Z,1.77
2019-01-13T20:33:48.517Z,1.00
2019-01-13T20:36:17.835Z,1.90
2019-01-13T20:38:47.568Z,1.90
2019-01-13T20:41:17.207Z,1.50
2019-01-13T20:43:46.661Z,1.73
2019-01-13T20:46:16.402Z,1.97
2019-01-13T20:48:45.771Z,1.73
2019-01-13T20:51:15.176Z,1.83
2019-01-13T20:53:45.203Z,4.20
2019-01-13T20:56:14.510Z,2.50
2019-01-13T20:58:44.190Z,2.83
2019-01-13T21:01:13.514Z,2.73
2019-01-13T21:03:42.884Z,3.20
2019-01-13T21:06:12.196Z,3.23
2019-01-13T21:08:41.540Z,3.90
2019-01-13T21:11:10.903Z,3.17
2019-01-13T21:13:40.249Z,2.60
2019-01-13T21:16:09.763Z,2.53
2019-01-13T21:18:39.314Z,2.87
2019-01-13T21:21:08.728Z,2.80
2019-01-13T21:23:38.091Z,2.80
2019-01-13T21:26:07.801Z,3.03
2019-01-13T21:28:37.433Z,4.37
2019-01-13T21:31:07.101Z,5.07
2019-01-13T21:33:36.820Z,4.50
2019-01-13T21:36:06.176Z,4.83
2019-01-13T21:38:35.517Z,4.70
2019-01-13T21:41:04.837Z,5.60
2019-01-13T21:43:34.126Z,5.63
2019-01-13T21:46:03.391Z,6.97
2019-01-13T21:48:32.700Z,6.30
2019-01-13T21:51:01.960Z,5.20
2019-01-13T21:53:31.253Z,5.00
2019-01-13T21:56:00.900Z,5.80
2019-01-13T21:58:30.172Z,4.27
2019-01-13T22:00:59.553Z,5.40
2019-01-13T22:03:29.595Z,5.13
2019-01-13T22:05:58.941Z,3.93
2019-01-13T22:08:28.190Z,5.20
2019-01-13T22:10:57.453Z,5.90
2019-01-13T22:13:26.784Z,4.53
2019-01-13T22:15:56.143Z,4.80
2019-01-13T22:18:25.417Z,4.20
2019-01-13T22:20:54.698Z,5.50
2019-01-13T22:23:24.006Z,4.77
2019-01-13T22:25:53.228Z,4.20
2019-01-13T22:28:23.083Z,3.47
2019-01-13T22:30:52.433Z,5.07
2019-01-13T22:33:21.730Z,5.20
2019-01-13T22:35:51.058Z,3.70
2019-01-13T22:38:20.352Z,6.10
2019-01-13T22:40:49.738Z,3.70
2019-01-13T22:43:19.024Z,4.97
2019-01-13T22:45:48.351Z,3.57
2019-01-13T22:48:17.704Z,3.17
2019-01-13T22:50:47.077Z,4.47
2019-01-13T22:53:16.368Z,3.90
2019-01-13T22:55:45.709Z,5.27
2019-01-13T22:58:15.020Z,3.67
2019-01-13T23:01:07.585Z,3.43
2019-01-13T23:03:37.737Z,3.40
2019-01-13T23:06:07.492Z,4.17
2019-01-13T23:08:36.818Z,4.40
2019-01-13T23:11:06.500Z,2.87
2019-01-13T23:13:35.767Z,3.90
2019-01-13T23:16:05.171Z,5.60
2019-01-13T23:18:34.535Z,4.60
2019-01-13T23:21:03.946Z,4.47
2019-01-13T23:23:33.164Z,4.00
2019-01-13T23:26:02.572Z,4.83
2019-01-13T23:28:31.958Z,3.10
2019-01-13T23:31:01.346Z,4.67
2019-01-13T23:33:30.640Z,3.60
2019-01-13T23:36:02.858Z,4.13
2019-01-13T23:38:30.948Z,4.57
2019-01-13T23:41:00.212Z,5.33
2019-01-13T23:43:29.593Z,4.57
2019-01-13T23:45:58.873Z,4.67
2019-01-13T23:48:28.151Z,3.90
2019-01-13T23:50:57.459Z,4.60
2019-01-13T23:53:26.833Z,4.20
2019-01-13T23:55:56.100Z,4.30
2019-01-13T23:58:25.881Z,4.50
